sensor_id;sensor_type;location;lat;lon;timestamp;P1;durP1;ratioP1;P2;durP2;ratioP2
61248;SDS011;47119;49.130;9.218;2022-11-20T00:01:34;3.35;;;2.33;;
61248;SDS011;47119;49.130;9.218;2022-11-20T00:04:01;0.98;;;0.98;;
61248;SDS011;47119;49.130;9.218;2022-11-20T00:06:29;0.98;;;0.98;;
61248;SDS011;47119;49.130;9.218;2022-11-20T00:09:01;1.45;;;1.38;;
61248;SDS011;47119;49.130;9.218;2022-11-20T00:11:33;0.98;;;0.98;;
61248;SDS011;47119;49.130;9.218;2022-11-20T00:14:01;0.98;;;0.98;;
61248;SDS011;47119;49.130;9.218;2022-11-20T00:16:30;1.02;;;1.02;;
61248;SDS011;47119;49.130;9.218;2022-11-20T00:18:59;1.90;;;1.27;;
61248;SDS011;47119;49.130;9.218;2022-11-20T00:21:27;3.08;;;1.17;;
61248;SDS011;47119;49.130;9.218;2022-11-20T00:23:56;1.45;;;1.35;;
61248;SDS011;47119;49.130;9.218;2022-11-20T00:26:25;1.80;;;1.70;;
61248;SDS011;47119;49.130;9.218;2022-11-20T00:28:56;1.40;;;1.30;;
61248;SDS011;47119;49.130;9.218;2022-11-20T00:31:28;0.60;;;0.60;;
61248;SDS011;47119;49.130;9.218;2022-11-20T00:33:58;2.28;;;1.95;;
61248;SDS011;47119;49.130;9.218;2022-11-20T00:36:26;3.28;;;1.40;;
61248;SDS011;47119;49.130;9.218;2022-11-20T00:38:57;0.65;;;0.65;;
61248;SDS011;47119;49.130;9.218;2022-11-20T00:41:29;0.90;;;0.88;;
61248;SDS011;47119;49.130;9.218;2022-11-20T00:43:57;1.67;;;1.58;;
61248;SDS011;47119;49.130;9.218;2022-11-20T00:46:26;0.77;;;0.77;;
61248;SDS011;47119;49.130;9.218;2022-11-20T00:48:57;0.77;;;0.77;;
61248;SDS011;47119;49.130;9.218;2022-11-20T00:51:25;1.98;;;0.85;;
61248;SDS011;47119;49.130;9.218;2022-11-20T00:53:54;1.30;;;1.27;;
61248;SDS011;47119;49.130;9.218;2022-11-20T00:56:22;1.67;;;1.58;;
61248;SDS011;47119;49.130;9.218;2022-11-20T00:58:51;1.50;;;1.13;;
61248;SDS011;47119;49.130;9.218;2022-11-20T01:01:19;2.00;;;1.90;;
61248;SDS011;47119;49.130;9.218;2022-11-20T01:03:49;1.05;;;1.05;;
61248;SDS011;47119;49.130;9.218;2022-11-20T01:06:19;1.13;;;1.05;;
61248;SDS011;47119;49.130;9.218;2022-11-20T01:08:50;0.93;;;0.93;;
61248;SDS011;47119;49.130;9.218;2022-11-20T01:11:23;1.48;;;1.20;;
61248;SDS011;47119;49.130;9.218;2022-11-20T01:13:54;1.55;;;1.45;;
61248;SDS011;47119;49.130;9.218;2022-11-20T01:16:24;0.68;;;0.68;;
61248;SDS011;47119;49.130;9.218;2022-11-20T01:18:53;1.08;;;1.00;;
61248;SDS011;47119;49.130;9.218;2022-11-20T01:21:24;2.42;;;1.17;;
61248;SDS011;47119;49.130;9.218;2022-11-20T01:23:54;0.65;;;0.65;;
61248;SDS011;47119;49.130;9.218;2022-11-20T01:26:22;0.73;;;0.73;;
61248;SDS011;47119;49.130;9.218;2022-11-20T01:28:55;1.83;;;0.67;;
61248;SDS011;47119;49.130;9.218;2022-11-20T01:31:25;1.25;;;1.25;;
61248;SDS011;47119;49.130;9.218;2022-11-20T01:33:58;0.77;;;0.77;;
61248;SDS011;47119;49.130;9.218;2022-11-20T01:36:28;1.10;;;0.95;;
61248;SDS011;47119;49.130;9.218;2022-11-20T01:38:59;0.82;;;0.82;;
61248;SDS011;47119;49.130;9.218;2022-11-20T01:41:33;4.93;;;1.40;;
61248;SDS011;47119;49.130;9.218;2022-11-20T01:44:21;2.95;;;1.77;;
61248;SDS011;47119;49.130;9.218;2022-11-20T01:47:16;1.35;;;1.08;;
61248;SDS011;47119;49.130;9.218;2022-11-20T01:49:53;0.57;;;0.57;;
61248;SDS011;47119;49.130;9.218;2022-11-20T01:52:28;0.60;;;0.60;;
61248;SDS011;47119;49.130;9.218;2022-11-20T01:55:02;1.02;;;0.98;;
61248;SDS011;47119;49.130;9.218;2022-11-20T01:57:36;1.02;;;0.85;;
61248;SDS011;47119;49.130;9.218;2022-11-20T02:00:11;1.13;;;1.13;;
61248;SDS011;47119;49.130;9.218;2022-11-20T02:02:43;0.50;;;0.50;;
61248;SDS011;47119;49.130;9.218;2022-11-20T02:05:16;1.02;;;1.02;;
61248;SDS011;47119;49.130;9.218;2022-11-20T02:07:51;1.10;;;1.08;;
61248;SDS011;47119;49.130;9.218;2022-11-20T02:10:26;1.77;;;1.67;;
61248;SDS011;47119;49.130;9.218;2022-11-20T02:12:55;2.38;;;1.20;;
61248;SDS011;47119;49.130;9.218;2022-11-20T02:15:42;1.80;;;1.20;;
61248;SDS011;47119;49.130;9.218;2022-11-20T02:18:10;1.08;;;1.05;;
61248;SDS011;47119;49.130;9.218;2022-11-20T02:20:40;1.42;;;1.25;;
61248;SDS011;47119;49.130;9.218;2022-11-20T02:23:11;2.05;;;1.92;;
61248;SDS011;47119;49.130;9.218;2022-11-20T02:25:47;0.98;;;0.98;;
61248;SDS011;47119;49.130;9.218;2022-11-20T02:28:16;2.33;;;0.70;;
61248;SDS011;47119;49.130;9.218;2022-11-20T02:30:47;1.67;;;1.60;;
61248;SDS011;47119;49.130;9.218;2022-11-20T02:33:17;1.75;;;1.58;;
61248;SDS011;47119;49.130;9.218;2022-11-20T02:35:47;1.02;;;1.02;;
61248;SDS011;47119;49.130;9.218;2022-11-20T02:38:15;1.23;;;1.20;;
61248;SDS011;47119;49.130;9.218;2022-11-20T02:40:42;2.25;;;1.55;;
61248;SDS011;47119;49.130;9.218;2022-11-20T02:43:10;0.75;;;0.75;;
61248;SDS011;47119;49.130;9.218;2022-11-20T02:45:40;1.63;;;1.63;;
61248;SDS011;47119;49.130;9.218;2022-11-20T02:48:07;2.08;;;1.30;;
61248;SDS011;47119;49.130;9.218;2022-11-20T02:50:36;1.50;;;1.40;;
61248;SDS011;47119;49.130;9.218;2022-11-20T02:53:07;1.48;;;1.38;;
61248;SDS011;47119;49.130;9.218;2022-11-20T02:55:35;1.40;;;1.40;;
61248;SDS011;47119;49.130;9.218;2022-11-20T02:58:03;1.80;;;1.70;;
61248;SDS011;47119;49.130;9.218;2022-11-20T03:00:31;0.75;;;0.75;;
61248;SDS011;47119;49.130;9.218;2022-11-20T03:02:59;2.13;;;1.38;;
61248;SDS011;47119;49.130;9.218;2022-11-20T03:05:26;0.70;;;0.70;;
61248;SDS011;47119;49.130;9.218;2022-11-20T03:07:53;1.58;;;1.33;;
61248;SDS011;47119;49.130;9.218;2022-11-20T03:10:20;1.50;;;1.40;;
61248;SDS011;47119;49.130;9.218;2022-11-20T03:12:47;1.42;;;1.35;;
61248;SDS011;47119;49.130;9.218;2022-11-20T03:15:19;1.45;;;1.35;;
61248;SDS011;47119;49.130;9.218;2022-11-20T03:17:47;2.80;;;1.67;;
61248;SDS011;47119;49.130;9.218;2022-11-20T03:20:15;0.63;;;0.63;;
61248;SDS011;47119;49.130;9.218;2022-11-20T03:22:42;1.10;;;1.00;;
61248;SDS011;47119;49.130;9.218;2022-11-20T03:25:09;0.90;;;0.90;;
61248;SDS011;47119;49.130;9.218;2022-11-20T03:27:39;1.02;;;1.02;;
61248;SDS011;47119;49.130;9.218;2022-11-20T03:30:06;1.00;;;1.00;;
61248;SDS011;47119;49.130;9.218;2022-11-20T03:32:35;1.35;;;1.30;;
61248;SDS011;47119;49.130;9.218;2022-11-20T03:35:04;0.90;;;0.90;;
61248;SDS011;47119;49.130;9.218;2022-11-20T03:37:32;1.02;;;1.02;;
61248;SDS011;47119;49.130;9.218;2022-11-20T03:39:59;0.20;;;0.20;;
61248;SDS011;47119;49.130;9.218;2022-11-20T03:42:26;0.90;;;0.82;;
61248;SDS011;47119;49.130;9.218;2022-11-20T03:45:12;0.40;;;0.40;;
61248;SDS011;47119;49.130;9.218;2022-11-20T03:47:42;1.55;;;1.23;;
61248;SDS011;47119;49.130;9.218;2022-11-20T03:50:14;0.40;;;0.40;;
61248;SDS011;47119;49.130;9.218;2022-11-20T03:52:41;0.70;;;0.70;;
61248;SDS011;47119;49.130;9.218;2022-11-20T03:55:08;0.40;;;0.40;;
61248;SDS011;47119;49.130;9.218;2022-11-20T03:57:36;0.52;;;0.52;;
61248;SDS011;47119;49.130;9.218;2022-11-20T04:00:03;0.63;;;0.63;;
61248;SDS011;47119;49.130;9.218;2022-11-20T04:02:32;0.45;;;0.45;;
61248;SDS011;47119;49.130;9.218;2022-11-20T04:04:59;0.63;;;0.63;;
61248;SDS011;47119;49.130;9.218;2022-11-20T04:07:28;0.65;;;0.65;;
61248;SDS011;47119;49.130;9.218;2022-11-20T04:09:55;0.88;;;0.88;;
61248;SDS011;47119;49.130;9.218;2022-11-20T04:12:22;0.60;;;0.60;;
61248;SDS011;47119;49.130;9.218;2022-11-20T04:14:49;1.10;;;0.85;;
61248;SDS011;47119;49.130;9.218;2022-11-20T04:17:16;0.85;;;0.85;;
61248;SDS011;47119;49.130;9.218;2022-11-20T04:19:43;0.50;;;0.50;;
61248;SDS011;47119;49.130;9.218;2022-11-20T04:22:10;1.10;;;1.10;;
61248;SDS011;47119;49.130;9.218;2022-11-20T04:24:39;0.77;;;0.63;;
61248;SDS011;47119;49.130;9.218;2022-11-20T04:27:06;0.68;;;0.68;;
61248;SDS011;47119;49.130;9.218;2022-11-20T04:29:35;0.30;;;0.30;;
61248;SDS011;47119;49.130;9.218;2022-11-20T04:32:07;0.50;;;0.50;;
61248;SDS011;47119;49.130;9.218;2022-11-20T04:34:36;0.63;;;0.63;;
61248;SDS011;47119;49.130;9.218;2022-11-20T04:37:04;0.95;;;0.90;;
61248;SDS011;47119;49.130;9.218;2022-11-20T04:39:31;1.85;;;0.90;;
61248;SDS011;47119;49.130;9.218;2022-11-20T04:42:02;0.82;;;0.82;;
61248;SDS011;47119;49.130;9.218;2022-11-20T04:44:49;0.35;;;0.35;;
61248;SDS011;47119;49.130;9.218;2022-11-20T04:47:16;0.60;;;0.60;;
61248;SDS011;47119;49.130;9.218;2022-11-20T04:49:45;2.78;;;0.90;;
61248;SDS011;47119;49.130;9.218;2022-11-20T04:52:13;0.50;;;0.50;;
61248;SDS011;47119;49.130;9.218;2022-11-20T04:54:40;0.52;;;0.52;;
61248;SDS011;47119;49.130;9.218;2022-11-20T04:57:08;0.43;;;0.43;;
61248;SDS011;47119;49.130;9.218;2022-11-20T04:59:41;0.55;;;0.55;;
61248;SDS011;47119;49.130;9.218;2022-11-20T05:02:08;0.57;;;0.57;;
61248;SDS011;47119;49.130;9.218;2022-11-20T05:04:36;0.30;;;0.30;;
61248;SDS011;47119;49.130;9.218;2022-11-20T05:07:05;1.08;;;0.63;;
61248;SDS011;47119;49.130;9.218;2022-11-20T05:09:33;0.35;;;0.35;;
61248;SDS011;47119;49.130;9.218;2022-11-20T05:12:00;0.40;;;0.40;;
61248;SDS011;47119;49.130;9.218;2022-11-20T05:14:28;1.27;;;0.73;;
61248;SDS011;47119;49.130;9.218;2022-11-20T05:16:55;0.93;;;0.93;;
61248;SDS011;47119;49.130;9.218;2022-11-20T05:19:25;0.20;;;0.20;;
61248;SDS011;47119;49.130;9.218;2022-11-20T05:21:52;0.50;;;0.50;;
61248;SDS011;47119;49.130;9.218;2022-11-20T05:24:20;0.30;;;0.30;;
61248;SDS011;47119;49.130;9.218;2022-11-20T05:26:47;0.40;;;0.40;;
61248;SDS011;47119;49.130;9.218;2022-11-20T05:29:14;0.30;;;0.30;;
61248;SDS011;47119;49.130;9.218;2022-11-20T05:31:43;0.82;;;0.80;;
61248;SDS011;47119;49.130;9.218;2022-11-20T05:34:10;0.60;;;0.60;;
61248;SDS011;47119;49.130;9.218;2022-11-20T05:36:37;0.30;;;0.30;;
61248;SDS011;47119;49.130;9.218;2022-11-20T05:39:06;0.50;;;0.50;;
61248;SDS011;47119;49.130;9.218;2022-11-20T05:41:33;0.15;;;0.15;;
61248;SDS011;47119;49.130;9.218;2022-11-20T05:44:01;0.30;;;0.30;;
61248;SDS011;47119;49.130;9.218;2022-11-20T05:46:31;0.35;;;0.35;;
61248;SDS011;47119;49.130;9.218;2022-11-20T05:48:59;0.20;;;0.20;;
61248;SDS011;47119;49.130;9.218;2022-11-20T05:51:26;0.22;;;0.22;;
61248;SDS011;47119;49.130;9.218;2022-11-20T05:53:55;0.45;;;0.45;;
61248;SDS011;47119;49.130;9.218;2022-11-20T05:56:24;0.35;;;0.35;;
61248;SDS011;47119;49.130;9.218;2022-11-20T05:58:51;0.40;;;0.40;;
61248;SDS011;47119;49.130;9.218;2022-11-20T06:01:18;0.55;;;0.55;;
61248;SDS011;47119;49.130;9.218;2022-11-20T06:03:48;0.55;;;0.50;;
61248;SDS011;47119;49.130;9.218;2022-11-20T06:06:18;0.35;;;0.35;;
61248;SDS011;47119;49.130;9.218;2022-11-20T06:08:47;0.20;;;0.20;;
61248;SDS011;47119;49.130;9.218;2022-11-20T06:11:15;0.10;;;0.10;;
61248;SDS011;47119;49.130;9.218;2022-11-20T06:13:45;0.20;;;0.20;;
61248;SDS011;47119;49.130;9.218;2022-11-20T06:16:14;0.47;;;0.45;;
61248;SDS011;47119;49.130;9.218;2022-11-20T06:18:44;0.30;;;0.30;;
61248;SDS011;47119;49.130;9.218;2022-11-20T06:21:12;0.30;;;0.30;;
61248;SDS011;47119;49.130;9.218;2022-11-20T06:23:48;1.20;;;0.50;;
61248;SDS011;47119;49.130;9.218;2022-11-20T06:26:17;0.65;;;0.63;;
61248;SDS011;47119;49.130;9.218;2022-11-20T06:28:47;0.57;;;0.57;;
61248;SDS011;47119;49.130;9.218;2022-11-20T06:31:17;0.43;;;0.43;;
61248;SDS011;47119;49.130;9.218;2022-11-20T06:33:46;10.52;;;0.50;;
61248;SDS011;47119;49.130;9.218;2022-11-20T06:36:15;1.48;;;1.17;;
61248;SDS011;47119;49.130;9.218;2022-11-20T06:38:48;0.52;;;0.52;;
61248;SDS011;47119;49.130;9.218;2022-11-20T06:41:17;1.65;;;1.02;;
61248;SDS011;47119;49.130;9.218;2022-11-20T06:43:48;0.88;;;0.68;;
61248;SDS011;47119;49.130;9.218;2022-11-20T06:46:16;0.82;;;0.82;;
61248;SDS011;47119;49.130;9.218;2022-11-20T06:48:46;1.33;;;1.08;;
61248;SDS011;47119;49.130;9.218;2022-11-20T06:51:14;0.85;;;0.50;;
61248;SDS011;47119;49.130;9.218;2022-11-20T06:53:44;3.03;;;1.23;;
61248;SDS011;47119;49.130;9.218;2022-11-20T06:56:12;0.60;;;0.60;;
61248;SDS011;47119;49.130;9.218;2022-11-20T06:58:40;0.52;;;0.52;;
61248;SDS011;47119;49.130;9.218;2022-11-20T07:01:10;0.63;;;0.63;;
61248;SDS011;47119;49.130;9.218;2022-11-20T07:03:39;0.77;;;0.77;;
61248;SDS011;47119;49.130;9.218;2022-11-20T07:06:08;0.35;;;0.35;;
61248;SDS011;47119;49.130;9.218;2022-11-20T07:08:36;0.80;;;0.80;;
61248;SDS011;47119;49.130;9.218;2022-11-20T07:11:04;0.65;;;0.65;;
61248;SDS011;47119;49.130;9.218;2022-11-20T07:13:34;0.20;;;0.20;;
61248;SDS011;47119;49.130;9.218;2022-11-20T07:16:02;0.47;;;0.47;;
61248;SDS011;47119;49.130;9.218;2022-11-20T07:18:32;0.50;;;0.50;;
61248;SDS011;47119;49.130;9.218;2022-11-20T07:21:00;0.50;;;0.50;;
61248;SDS011;47119;49.130;9.218;2022-11-20T07:23:29;0.30;;;0.30;;
61248;SDS011;47119;49.130;9.218;2022-11-20T07:25:56;0.50;;;0.50;;
61248;SDS011;47119;49.130;9.218;2022-11-20T07:28:23;0.35;;;0.35;;
61248;SDS011;47119;49.130;9.218;2022-11-20T07:30:52;0.35;;;0.35;;
61248;SDS011;47119;49.130;9.218;2022-11-20T07:33:20;0.22;;;0.22;;
61248;SDS011;47119;49.130;9.218;2022-11-20T07:35:47;0.20;;;0.20;;
61248;SDS011;47119;49.130;9.218;2022-11-20T07:38:14;0.22;;;0.22;;
61248;SDS011;47119;49.130;9.218;2022-11-20T07:40:41;0.60;;;0.60;;
61248;SDS011;47119;49.130;9.218;2022-11-20T07:43:08;0.52;;;0.52;;
61248;SDS011;47119;49.130;9.218;2022-11-20T07:45:35;0.10;;;0.10;;
61248;SDS011;47119;49.130;9.218;2022-11-20T07:48:04;0.35;;;0.35;;
61248;SDS011;47119;49.130;9.218;2022-11-20T07:50:34;0.10;;;0.10;;
61248;SDS011;47119;49.130;9.218;2022-11-20T07:53:02;0.10;;;0.10;;
61248;SDS011;47119;49.130;9.218;2022-11-20T07:55:32;0.17;;;0.17;;
61248;SDS011;47119;49.130;9.218;2022-11-20T07:58:00;0.40;;;0.40;;
61248;SDS011;47119;49.130;9.218;2022-11-20T08:00:27;0.10;;;0.10;;
61248;SDS011;47119;49.130;9.218;2022-11-20T08:02:54;0.30;;;0.30;;
61248;SDS011;47119;49.130;9.218;2022-11-20T08:05:25;0.10;;;0.10;;
61248;SDS011;47119;49.130;9.218;2022-11-20T08:07:55;0.10;;;0.10;;
61248;SDS011;47119;49.130;9.218;2022-11-20T08:10:23;0.08;;;0.08;;
61248;SDS011;47119;49.130;9.218;2022-11-20T08:12:51;0.32;;;0.32;;
61248;SDS011;47119;49.130;9.218;2022-11-20T08:15:39;0.22;;;0.22;;
61248;SDS011;47119;49.130;9.218;2022-11-20T08:18:07;0.10;;;0.10;;
61248;SDS011;47119;49.130;9.218;2022-11-20T08:20:38;0.45;;;0.45;;
61248;SDS011;47119;49.130;9.218;2022-11-20T08:23:07;0.25;;;0.25;;
61248;SDS011;47119;49.130;9.218;2022-11-20T08:25:34;0.55;;;0.47;;
61248;SDS011;47119;49.130;9.218;2022-11-20T08:28:06;0.25;;;0.25;;
61248;SDS011;47119;49.130;9.218;2022-11-20T08:30:40;0.10;;;0.10;;
61248;SDS011;47119;49.130;9.218;2022-11-20T08:33:16;0.20;;;0.20;;
61248;SDS011;47119;49.130;9.218;2022-11-20T08:35:45;0.10;;;0.10;;
61248;SDS011;47119;49.130;9.218;2022-11-20T08:38:16;0.93;;;0.88;;
61248;SDS011;47119;49.130;9.218;2022-11-20T08:40:43;0.30;;;0.30;;
61248;SDS011;47119;49.130;9.218;2022-11-20T08:43:30;0.10;;;0.10;;
61248;SDS011;47119;49.130;9.218;2022-11-20T08:45:57;0.17;;;0.17;;
61248;SDS011;47119;49.130;9.218;2022-11-20T08:48:24;0.20;;;0.20;;
61248;SDS011;47119;49.130;9.218;2022-11-20T08:50:58;0.28;;;0.25;;
61248;SDS011;47119;49.130;9.218;2022-11-20T08:53:28;0.10;;;0.10;;
61248;SDS011;47119;49.130;9.218;2022-11-20T08:55:56;0.13;;;0.13;;
61248;SDS011;47119;49.130;9.218;2022-11-20T08:58:24;0.38;;;0.38;;
61248;SDS011;47119;49.130;9.218;2022-11-20T09:01:04;0.00;;;0.00;;
61248;SDS011;47119;49.130;9.218;2022-11-20T09:04:35;1.17;;;0.40;;
61248;SDS011;47119;49.130;9.218;2022-11-20T09:10:07;0.08;;;0.08;;
61248;SDS011;47119;49.130;9.218;2022-11-20T09:12:35;0.28;;;0.28;;
61248;SDS011;47119;49.130;9.218;2022-11-20T09:15:07;0.40;;;0.35;;
61248;SDS011;47119;49.130;9.218;2022-11-20T09:17:35;0.20;;;0.20;;
61248;SDS011;47119;49.130;9.218;2022-11-20T09:20:30;0.38;;;0.38;;
61248;SDS011;47119;49.130;9.218;2022-11-20T09:23:00;0.25;;;0.25;;
61248;SDS011;47119;49.130;9.218;2022-11-20T09:28:37;0.13;;;0.13;;
61248;SDS011;47119;49.130;9.218;2022-11-20T09:31:15;0.30;;;0.30;;
61248;SDS011;47119;49.130;9.218;2022-11-20T09:33:49;0.20;;;0.20;;
61248;SDS011;47119;49.130;9.218;2022-11-20T09:36:27;0.93;;;0.47;;
61248;SDS011;47119;49.130;9.218;2022-11-20T09:38:58;0.30;;;0.30;;
61248;SDS011;47119;49.130;9.218;2022-11-20T09:45:05;0.10;;;0.10;;
61248;SDS011;47119;49.130;9.218;2022-11-20T09:47:58;0.68;;;0.68;;
61248;SDS011;47119;49.130;9.218;2022-11-20T09:50:49;0.50;;;0.50;;
61248;SDS011;47119;49.130;9.218;2022-11-20T09:53:31;0.22;;;0.22;;
61248;SDS011;47119;49.130;9.218;2022-11-20T09:56:12;0.60;;;0.60;;
61248;SDS011;47119;49.130;9.218;2022-11-20T09:58:49;0.20;;;0.20;;
61248;SDS011;47119;49.130;9.218;2022-11-20T10:01:22;0.35;;;0.35;;
61248;SDS011;47119;49.130;9.218;2022-11-20T10:04:00;0.30;;;0.30;;
61248;SDS011;47119;49.130;9.218;2022-11-20T10:06:33;0.55;;;0.52;;
61248;SDS011;47119;49.130;9.218;2022-11-20T10:09:18;0.40;;;0.40;;
61248;SDS011;47119;49.130;9.218;2022-11-20T10:11:58;1.98;;;0.80;;
61248;SDS011;47119;49.130;9.218;2022-11-20T10:14:50;0.30;;;0.30;;
61248;SDS011;47119;49.130;9.218;2022-11-20T10:17:42;0.40;;;0.40;;
61248;SDS011;47119;49.130;9.218;2022-11-20T10:20:30;0.40;;;0.40;;
61248;SDS011;47119;49.130;9.218;2022-11-20T10:23:17;0.10;;;0.10;;
61248;SDS011;47119;49.130;9.218;2022-11-20T10:26:16;0.10;;;0.10;;
61248;SDS011;47119;49.130;9.218;2022-11-20T10:28:55;0.90;;;0.73;;
61248;SDS011;47119;49.130;9.218;2022-11-20T10:31:39;0.30;;;0.30;;
61248;SDS011;47119;49.130;9.218;2022-11-20T10:34:15;0.47;;;0.47;;
61248;SDS011;47119;49.130;9.218;2022-11-20T10:36:54;0.73;;;0.73;;
61248;SDS011;47119;49.130;9.218;2022-11-20T10:39:28;0.47;;;0.47;;
61248;SDS011;47119;49.130;9.218;2022-11-20T10:42:03;0.45;;;0.45;;
61248;SDS011;47119;49.130;9.218;2022-11-20T10:44:46;2.45;;;2.35;;
61248;SDS011;47119;49.130;9.218;2022-11-20T10:47:35;3.05;;;2.75;;
61248;SDS011;47119;49.130;9.218;2022-11-20T10:50:03;1.20;;;1.20;;
61248;SDS011;47119;49.130;9.218;2022-11-20T10:52:41;0.43;;;0.43;;
61248;SDS011;47119;49.130;9.218;2022-11-20T10:55:25;0.70;;;0.70;;
61248;SDS011;47119;49.130;9.218;2022-11-20T10:58:01;1.48;;;0.93;;
61248;SDS011;47119;49.130;9.218;2022-11-20T11:00:41;0.40;;;0.40;;
61248;SDS011;47119;49.130;9.218;2022-11-20T11:03:23;0.38;;;0.38;;
61248;SDS011;47119;49.130;9.218;2022-11-20T11:05:58;0.73;;;0.73;;
61248;SDS011;47119;49.130;9.218;2022-11-20T11:08:34;0.80;;;0.80;;
61248;SDS011;47119;49.130;9.218;2022-11-20T11:11:15;0.20;;;0.20;;
61248;SDS011;47119;49.130;9.218;2022-11-20T11:13:49;0.73;;;0.50;;
61248;SDS011;47119;49.130;9.218;2022-11-20T11:16:21;0.40;;;0.40;;
61248;SDS011;47119;49.130;9.218;2022-11-20T11:18:50;0.20;;;0.20;;
61248;SDS011;47119;49.130;9.218;2022-11-20T11:21:22;0.65;;;0.60;;
61248;SDS011;47119;49.130;9.218;2022-11-20T11:23:59;0.13;;;0.13;;
61248;SDS011;47119;49.130;9.218;2022-11-20T11:26:28;0.20;;;0.20;;
61248;SDS011;47119;49.130;9.218;2022-11-20T11:28:56;0.82;;;0.82;;
61248;SDS011;47119;49.130;9.218;2022-11-20T11:31:27;0.20;;;0.20;;
61248;SDS011;47119;49.130;9.218;2022-11-20T11:34:04;0.13;;;0.13;;
61248;SDS011;47119;49.130;9.218;2022-11-20T11:36:32;0.30;;;0.30;;
61248;SDS011;47119;49.130;9.218;2022-11-20T11:39:02;1.02;;;1.02;;
61248;SDS011;47119;49.130;9.218;2022-11-20T11:41:33;0.20;;;0.20;;
61248;SDS011;47119;49.130;9.218;2022-11-20T11:44:03;4.25;;;0.80;;
61248;SDS011;47119;49.130;9.218;2022-11-20T11:47:04;0.38;;;0.38;;
61248;SDS011;47119;49.130;9.218;2022-11-20T11:49:37;0.20;;;0.20;;
61248;SDS011;47119;49.130;9.218;2022-11-20T11:52:08;1.15;;;1.15;;
61248;SDS011;47119;49.130;9.218;2022-11-20T11:54:47;0.22;;;0.22;;
61248;SDS011;47119;49.130;9.218;2022-11-20T11:57:20;0.77;;;0.77;;
61248;SDS011;47119;49.130;9.218;2022-11-20T11:59:59;0.30;;;0.30;;
61248;SDS011;47119;49.130;9.218;2022-11-20T12:02:44;0.50;;;0.50;;
61248;SDS011;47119;49.130;9.218;2022-11-20T12:05:24;0.30;;;0.30;;
61248;SDS011;47119;49.130;9.218;2022-11-20T12:07:56;0.20;;;0.20;;
61248;SDS011;47119;49.130;9.218;2022-11-20T12:10:37;1.55;;;0.55;;
61248;SDS011;47119;49.130;9.218;2022-11-20T12:13:20;0.65;;;0.65;;
61248;SDS011;47119;49.130;9.218;2022-11-20T12:16:09;0.30;;;0.30;;
61248;SDS011;47119;49.130;9.218;2022-11-20T12:18:41;0.38;;;0.35;;
61248;SDS011;47119;49.130;9.218;2022-11-20T12:21:17;0.52;;;0.52;;
61248;SDS011;47119;49.130;9.218;2022-11-20T12:24:02;0.28;;;0.28;;
61248;SDS011;47119;49.130;9.218;2022-11-20T12:27:08;0.40;;;0.40;;
61248;SDS011;47119;49.130;9.218;2022-11-20T12:30:11;0.10;;;0.10;;
61248;SDS011;47119;49.130;9.218;2022-11-20T12:36:04;0.50;;;0.50;;
61248;SDS011;47119;49.130;9.218;2022-11-20T12:41:51;0.00;;;0.00;;
61248;SDS011;47119;49.130;9.218;2022-11-20T12:45:01;0.43;;;0.43;;
61248;SDS011;47119;49.130;9.218;2022-11-20T12:47:51;0.38;;;0.38;;
61248;SDS011;47119;49.130;9.218;2022-11-20T12:50:57;0.63;;;0.63;;
61248;SDS011;47119;49.130;9.218;2022-11-20T12:53:56;0.55;;;0.55;;
61248;SDS011;47119;49.130;9.218;2022-11-20T12:56:50;0.13;;;0.13;;
61248;SDS011;47119;49.130;9.218;2022-11-20T12:59:32;0.20;;;0.20;;
61248;SDS011;47119;49.130;9.218;2022-11-20T13:02:23;0.65;;;0.65;;
61248;SDS011;47119;49.130;9.218;2022-11-20T13:05:10;0.40;;;0.40;;
61248;SDS011;47119;49.130;9.218;2022-11-20T13:07:52;0.47;;;0.47;;
61248;SDS011;47119;49.130;9.218;2022-11-20T13:10:23;0.40;;;0.35;;
61248;SDS011;47119;49.130;9.218;2022-11-20T13:13:03;0.50;;;0.50;;
61248;SDS011;47119;49.130;9.218;2022-11-20T13:15:47;0.38;;;0.38;;
61248;SDS011;47119;49.130;9.218;2022-11-20T13:18:22;0.10;;;0.10;;
61248;SDS011;47119;49.130;9.218;2022-11-20T13:20:49;0.03;;;0.03;;
61248;SDS011;47119;49.130;9.218;2022-11-20T13:23:25;2.15;;;1.63;;
61248;SDS011;47119;49.130;9.218;2022-11-20T13:26:03;3.05;;;2.45;;
61248;SDS011;47119;49.130;9.218;2022-11-20T13:28:33;0.30;;;0.30;;
61248;SDS011;47119;49.130;9.218;2022-11-20T13:31:04;0.20;;;0.20;;
61248;SDS011;47119;49.130;9.218;2022-11-20T13:33:32;0.57;;;0.57;;
61248;SDS011;47119;49.130;9.218;2022-11-20T13:36:05;0.38;;;0.38;;
61248;SDS011;47119;49.130;9.218;2022-11-20T13:38:52;0.35;;;0.35;;
61248;SDS011;47119;49.130;9.218;2022-11-20T13:41:24;0.45;;;0.45;;
61248;SDS011;47119;49.130;9.218;2022-11-20T13:43:54;0.30;;;0.30;;
61248;SDS011;47119;49.130;9.218;2022-11-20T13:46:35;0.20;;;0.20;;
61248;SDS011;47119;49.130;9.218;2022-11-20T13:49:08;0.38;;;0.38;;
61248;SDS011;47119;49.130;9.218;2022-11-20T13:51:45;0.15;;;0.15;;
61248;SDS011;47119;49.130;9.218;2022-11-20T13:54:26;0.30;;;0.30;;
61248;SDS011;47119;49.130;9.218;2022-11-20T13:57:30;0.40;;;0.40;;
61248;SDS011;47119;49.130;9.218;2022-11-20T14:00:42;0.10;;;0.10;;
61248;SDS011;47119;49.130;9.218;2022-11-20T14:03:17;0.30;;;0.30;;
61248;SDS011;47119;49.130;9.218;2022-11-20T14:05:49;0.10;;;0.10;;
61248;SDS011;47119;49.130;9.218;2022-11-20T14:08:24;0.15;;;0.15;;
61248;SDS011;47119;49.130;9.218;2022-11-20T14:11:05;0.77;;;0.77;;
61248;SDS011;47119;49.130;9.218;2022-11-20T14:13:55;0.20;;;0.20;;
61248;SDS011;47119;49.130;9.218;2022-11-20T14:16:29;0.20;;;0.20;;
61248;SDS011;47119;49.130;9.218;2022-11-20T14:19:17;0.30;;;0.30;;
61248;SDS011;47119;49.130;9.218;2022-11-20T14:22:09;0.00;;;0.00;;
61248;SDS011;47119;49.130;9.218;2022-11-20T14:24:47;0.10;;;0.10;;
61248;SDS011;47119;49.130;9.218;2022-11-20T14:27:32;0.10;;;0.10;;
61248;SDS011;47119;49.130;9.218;2022-11-20T14:30:05;0.00;;;0.00;;
61248;SDS011;47119;49.130;9.218;2022-11-20T14:32:41;0.00;;;0.00;;
61248;SDS011;47119;49.130;9.218;2022-11-20T14:35:13;0.22;;;0.22;;
61248;SDS011;47119;49.130;9.218;2022-11-20T14:37:50;0.00;;;0.00;;
61248;SDS011;47119;49.130;9.218;2022-11-20T14:40:22;0.10;;;0.10;;
61248;SDS011;47119;49.130;9.218;2022-11-20T14:42:56;3.92;;;0.50;;
61248;SDS011;47119;49.130;9.218;2022-11-20T14:45:28;0.20;;;0.20;;
61248;SDS011;47119;49.130;9.218;2022-11-20T14:47:56;0.10;;;0.10;;
61248;SDS011;47119;49.130;9.218;2022-11-20T14:50:27;0.10;;;0.10;;
61248;SDS011;47119;49.130;9.218;2022-11-20T14:52:58;5.13;;;0.63;;
61248;SDS011;47119;49.130;9.218;2022-11-20T14:55:28;0.10;;;0.10;;
61248;SDS011;47119;49.130;9.218;2022-11-20T14:58:03;0.10;;;0.10;;
61248;SDS011;47119;49.130;9.218;2022-11-20T15:00:33;0.70;;;0.70;;
61248;SDS011;47119;49.130;9.218;2022-11-20T15:03:13;0.38;;;0.38;;
61248;SDS011;47119;49.130;9.218;2022-11-20T15:05:47;0.35;;;0.35;;
61248;SDS011;47119;49.130;9.218;2022-11-20T15:08:16;0.40;;;0.40;;
61248;SDS011;47119;49.130;9.218;2022-11-20T15:10:47;0.20;;;0.20;;
61248;SDS011;47119;49.130;9.218;2022-11-20T15:13:25;0.20;;;0.20;;
61248;SDS011;47119;49.130;9.218;2022-11-20T15:15:58;0.15;;;0.15;;
61248;SDS011;47119;49.130;9.218;2022-11-20T15:18:31;0.50;;;0.50;;
61248;SDS011;47119;49.130;9.218;2022-11-20T15:21:09;0.30;;;0.30;;
61248;SDS011;47119;49.130;9.218;2022-11-20T15:23:51;0.60;;;0.60;;
61248;SDS011;47119;49.130;9.218;2022-11-20T15:26:20;0.85;;;0.63;;
61248;SDS011;47119;49.130;9.218;2022-11-20T15:29:10;0.50;;;0.50;;
61248;SDS011;47119;49.130;9.218;2022-11-20T15:31:44;0.40;;;0.40;;
61248;SDS011;47119;49.130;9.218;2022-11-20T15:34:14;0.30;;;0.30;;
61248;SDS011;47119;49.130;9.218;2022-11-20T15:36:42;0.25;;;0.25;;
61248;SDS011;47119;49.130;9.218;2022-11-20T15:39:11;0.10;;;0.10;;
61248;SDS011;47119;49.130;9.218;2022-11-20T15:41:39;0.85;;;0.25;;